Time;durP1;ratioP1;P1;durP2;ratioP2;P2;SDS_P1;SDS_P2;PMS_P1;PMS_P2;Temp;Humidity;BMP_temperature;BMP_pressure;BME280_temperature;BME280_humidity;BME280_pressure;Samples;Min_cycle;Max_cycle;Signal;HPM_P1;HPM_P2
2023/06/06 00:02:21;;;;;;;3.87;1.60;;;11.40;99.90;;;;;;5056719;28;20049;-56
2023/06/06 00:04:49;;;;;;;5.05;2.00;;;11.40;99.90;;;;;;5056515;28;20060;-57
2023/06/06 00:07:19;;;;;;;6.18;2.33;;;11.40;99.90;;;;;;5056445;28;20061;-57
2023/06/06 00:09:45;;;;;;;5.03;1.98;;;11.30;99.90;;;;;;5056475;28;20143;-56
2023/06/06 00:12:14;;;;;;;4.63;1.83;;;11.30;99.90;;;;;;5055055;28;20123;-57
2023/06/06 00:14:41;;;;;;;4.97;1.88;;;11.30;99.90;;;;;;5056104;28;20488;-56
2023/06/06 00:17:08;;;;;;;4.20;1.70;;;11.30;99.90;;;;;;5056142;28;20448;-56
2023/06/06 00:19:35;;;;;;;6.35;2.38;;;11.30;99.90;;;;;;5056038;28;20132;-56
2023/06/06 00:22:02;;;;;;;6.20;2.22;;;11.20;99.90;;;;;;5056271;28;20080;-56
2023/06/06 00:24:28;;;;;;;4.63;1.90;;;11.20;99.90;;;;;;5056213;28;20051;-56
2023/06/06 00:26:54;;;;;;;5.53;2.20;;;11.20;99.90;;;;;;5056147;28;20053;-57
2023/06/06 00:29:19;;;;;;;5.60;1.90;;;11.20;99.90;;;;;;5056061;28;20128;-55
2023/06/06 00:31:45;;;;;;;6.27;2.23;;;11.20;99.90;;;;;;5055128;28;20496;-56
2023/06/06 00:34:11;;;;;;;4.80;2.00;;;11.10;99.90;;;;;;5055886;28;20049;-56
2023/06/06 00:36:37;;;;;;;5.87;1.60;;;11.10;99.90;;;;;;5054533;28;20102;-56
2023/06/06 00:39:02;;;;;;;5.10;1.90;;;11.00;99.90;;;;;;5054191;28;20169;-57
2023/06/06 00:41:28;;;;;;;5.03;2.10;;;11.00;99.90;;;;;;5055887;28;20059;-56
2023/06/06 00:43:54;;;;;;;5.43;2.03;;;10.90;99.90;;;;;;5055720;28;20045;-56
2023/06/06 00:46:19;;;;;;;5.53;2.27;;;10.80;99.90;;;;;;5054633;28;20128;-56
2023/06/06 00:48:46;;;;;;;5.07;1.87;;;10.80;99.90;;;;;;5055482;28;20439;-53
2023/06/06 00:51:12;;;;;;;6.80;2.35;;;10.80;99.90;;;;;;5055722;28;20092;-56
2023/06/06 00:53:38;;;;;;;5.50;2.03;;;10.70;99.90;;;;;;5037919;28;20440;-56
2023/06/06 00:56:05;;;;;;;6.03;2.60;;;10.70;99.90;;;;;;5055691;28;20045;-56
2023/06/06 00:58:31;;;;;;;7.13;2.30;;;10.70;99.90;;;;;;5054613;28;20060;-56
2023/06/06 01:00:57;;;;;;;7.38;2.55;;;10.70;99.90;;;;;;5054430;28;20083;-56
2023/06/06 01:03:24;;;;;;;6.10;2.50;;;10.60;99.90;;;;;;5055225;28;20037;-56
2023/06/06 01:05:55;;;;;;;5.40;2.50;;;10.60;99.90;;;;;;5055436;28;20099;-56
2023/06/06 01:08:23;;;;;;;7.05;3.20;;;10.70;99.90;;;;;;5055424;28;20506;-56
2023/06/06 01:10:51;;;;;;;6.45;3.08;;;10.60;99.90;;;;;;5055338;28;20083;-56
2023/06/06 01:13:30;;;;;;;7.38;2.85;;;10.60;99.90;;;;;;5055130;28;20037;-56
2023/06/06 01:16:05;;;;;;;9.10;2.83;;;10.60;99.90;;;;;;5055090;28;20049;-56
2023/06/06 01:18:31;;;;;;;6.93;2.55;;;10.70;99.90;;;;;;5055168;28;20519;-56
2023/06/06 01:20:58;;;;;;;5.28;2.33;;;10.70;99.90;;;;;;5054104;28;20055;-56
2023/06/06 01:23:27;;;;;;;;;;;10.70;99.90;;;;;;5055732;28;20416;-56
2023/06/06 01:25:53;;;;;;;9.73;3.08;;;10.80;99.90;;;;;;5054912;28;20005;-56
2023/06/06 01:28:19;;;;;;;5.80;2.60;;;10.80;99.90;;;;;;5054709;28;20102;-56
2023/06/06 01:30:46;;;;;;;5.85;2.22;;;10.80;99.90;;;;;;5054912;28;20455;-56
2023/06/06 01:33:17;;;;;;;7.15;3.08;;;10.80;99.90;;;;;;5055144;28;20063;-56
2023/06/06 01:36:03;;;;;;;6.60;2.83;;;10.80;99.90;;;;;;5054755;28;20059;-56
2023/06/06 01:38:34;;;;;;;5.97;2.60;;;10.80;99.90;;;;;;5053759;28;20053;-56
2023/06/06 01:41:03;;;;;;;7.38;2.88;;;10.80;99.90;;;;;;5053622;28;20045;-56
2023/06/06 01:43:31;;;;;;;6.65;2.92;;;10.80;99.90;;;;;;5053899;28;20045;-57
2023/06/06 01:45:57;;;;;;;6.05;2.42;;;10.80;99.90;;;;;;5054899;28;20386;-56
2023/06/06 01:48:24;;;;;;;;;;;10.80;99.90;;;;;;5053866;28;20366;-56
2023/06/06 01:50:50;;;;;;;6.03;2.60;;;10.80;99.90;;;;;;5054440;28;20443;-56
2023/06/06 01:53:16;;;;;;;6.22;2.63;;;10.70;99.90;;;;;;5054453;28;20048;-56
2023/06/06 01:55:41;;;;;;;6.20;2.93;;;10.80;99.90;;;;;;5053159;28;20133;-56
2023/06/06 01:58:08;;;;;;;7.20;3.00;;;10.70;99.90;;;;;;5053630;28;20053;-56
2023/06/06 02:00:33;;;;;;;6.25;2.55;;;10.70;99.90;;;;;;5054355;28;20346;-56
2023/06/06 02:02:59;;;;;;;6.57;2.87;;;10.70;99.90;;;;;;5054257;28;20041;-56
2023/06/06 02:05:25;;;;;;;6.60;2.73;;;10.70;99.90;;;;;;5054388;28;20045;-55
2023/06/06 02:07:51;;;;;;;6.20;2.70;;;10.70;99.90;;;;;;5054117;28;20049;-56
2023/06/06 02:10:17;;;;;;;5.60;2.47;;;10.60;99.90;;;;;;5052866;28;20386;-56
2023/06/06 02:12:43;;;;;;;6.07;2.75;;;10.60;99.90;;;;;;5053846;28;20473;-56
2023/06/06 02:15:10;;;;;;;9.10;3.17;;;10.60;99.90;;;;;;5054060;28;20049;-56
2023/06/06 02:17:36;;;;;;;5.60;2.72;;;10.50;99.90;;;;;;5053922;28;20135;-56
2023/06/06 02:20:06;;;;;;;7.00;2.35;;;10.50;99.90;;;;;;5053159;28;20103;-56
2023/06/06 02:22:32;;;;;;;7.28;2.55;;;10.50;99.90;;;;;;5053785;28;20140;-56
2023/06/06 02:24:59;;;;;;;6.40;2.70;;;10.50;99.90;;;;;;5053723;28;20127;-56
2023/06/06 02:27:24;;;;;;;;;;;10.50;99.90;;;;;;5053036;28;20061;-55
2023/06/06 02:29:50;;;;;;;5.70;2.72;;;10.50;99.90;;;;;;5053887;28;19921;-55
2023/06/06 02:32:16;;;;;;;6.18;2.63;;;10.40;99.90;;;;;;5053607;28;20084;-54
2023/06/06 02:34:42;;;;;;;8.07;2.23;;;10.40;99.90;;;;;;5053675;28;20136;-56
2023/06/06 02:37:07;;;;;;;6.07;2.67;;;10.40;99.90;;;;;;5053631;28;20049;-56
2023/06/06 02:39:34;;;;;;;6.07;2.23;;;10.40;99.90;;;;;;5053804;28;20067;-54
2023/06/06 02:42:00;;;;;;;6.70;2.42;;;10.50;99.90;;;;;;5053431;28;20499;-55
2023/06/06 02:44:26;;;;;;;6.00;2.47;;;10.50;99.90;;;;;;5053530;28;20080;-55
2023/06/06 02:46:52;;;;;;;5.88;2.85;;;10.50;99.90;;;;;;5053707;28;20136;-55
2023/06/06 02:49:18;;;;;;;7.23;2.53;;;10.50;99.90;;;;;;5053496;28;20498;-56
2023/06/06 02:51:43;;;;;;;6.27;2.93;;;10.50;99.90;;;;;;5053541;28;20056;-56
2023/06/06 02:54:09;;;;;;;7.10;2.77;;;10.40;99.90;;;;;;5053337;28;20059;-55
2023/06/06 02:56:35;;;;;;;6.37;2.30;;;10.40;99.90;;;;;;5053865;28;20055;-54
2023/06/06 02:59:00;;;;;;;5.63;2.47;;;10.40;99.90;;;;;;5053732;28;20083;-55
2023/06/06 03:01:26;;;;;;;7.67;2.63;;;10.40;99.90;;;;;;5058125;28;20052;-55
2023/06/06 03:03:52;;;;;;;5.43;2.30;;;10.40;99.90;;;;;;5060160;28;20048;-55
2023/06/06 03:06:20;;;;;;;5.83;2.63;;;10.40;99.90;;;;;;5060141;28;20128;-55
2023/06/06 03:08:46;;;;;;;7.72;2.65;;;10.40;99.90;;;;;;5058852;28;20060;-54
2023/06/06 03:11:12;;;;;;;6.95;2.38;;;10.40;99.90;;;;;;5060493;28;20084;-53
2023/06/06 03:13:38;;;;;;;7.20;3.05;;;10.40;99.90;;;;;;5059900;28;20080;-53
2023/06/06 03:16:04;;;;;;;4.97;2.17;;;10.40;99.90;;;;;;5060050;28;20049;-53
2023/06/06 03:18:32;;;;;;;7.43;2.77;;;10.40;99.90;;;;;;5060103;28;20044;-54
2023/06/06 03:20:58;;;;;;;5.05;2.67;;;10.40;99.90;;;;;;5059682;28;20282;-54
2023/06/06 03:23:23;;;;;;;8.00;3.10;;;10.40;99.90;;;;;;5060064;28;20124;-51
2023/06/06 03:25:51;;;;;;;7.70;2.60;;;10.50;99.90;;;;;;5060050;28;20057;-52
2023/06/06 03:28:18;;;;;;;5.47;2.55;;;10.40;99.90;;;;;;5060022;28;20061;-53
2023/06/06 03:30:48;;;;;;;7.35;2.53;;;10.40;99.90;;;;;;5059916;28;20057;-54
2023/06/06 03:33:14;;;;;;;5.32;2.35;;;10.40;99.90;;;;;;5059830;28;20399;-54
2023/06/06 03:35:40;;;;;;;;;;;10.50;99.90;;;;;;5060234;28;20053;-53
2023/06/06 03:38:06;;;;;;;6.28;2.45;;;10.50;99.90;;;;;;5042571;28;20383;-54
2023/06/06 03:40:31;;;;;;;7.37;2.50;;;10.50;99.90;;;;;;5059865;28;20085;-54
2023/06/06 03:42:57;;;;;;;7.33;2.53;;;10.60;99.90;;;;;;5059833;28;20325;-54
2023/06/06 03:45:23;;;;;;;4.97;2.10;;;10.60;99.90;;;;;;5059851;28;20480;-54
2023/06/06 03:47:50;;;;;;;6.15;2.50;;;10.60;99.90;;;;;;5059999;28;20623;-55
2023/06/06 03:50:16;;;;;;;6.30;2.40;;;10.60;99.90;;;;;;5059708;28;20103;-53
2023/06/06 03:52:42;;;;;;;5.65;2.53;;;10.70;99.90;;;;;;5059656;28;20045;-54
2023/06/06 03:55:09;;;;;;;7.13;2.40;;;10.70;99.90;;;;;;5059267;28;20047;-53
2023/06/06 03:57:38;;;;;;;6.63;2.47;;;10.80;99.90;;;;;;5060089;28;20528;-53
2023/06/06 04:00:10;;;;;;;5.95;2.67;;;10.80;99.90;;;;;;5059662;28;20517;-53
2023/06/06 04:02:46;;;;;;;7.00;2.75;;;10.80;99.90;;;;;;5059445;28;20041;-53
2023/06/06 04:05:12;;;;;;;6.65;2.55;;;10.80;99.90;;;;;;5059590;28;20052;-54
2023/06/06 04:07:38;;;;;;;6.53;2.80;;;10.80;99.90;;;;;;5059933;28;20041;-53
2023/06/06 04:10:05;;;;;;;6.47;2.88;;;10.80;99.90;;;;;;5059558;28;20127;-53
2023/06/06 04:12:31;;;;;;;5.65;2.38;;;10.80;99.90;;;;;;5057511;28;20044;-53
2023/06/06 04:14:57;;;;;;;6.28;2.42;;;10.80;99.90;;;;;;5054994;28;20098;-53
2023/06/06 04:17:24;;;;;;;6.50;2.30;;;10.80;99.90;;;;;;5056126;28;20041;-54
2023/06/06 04:19:50;;;;;;;9.02;2.97;;;10.80;99.90;;;;;;5056147;28;20055;-53
2023/06/06 04:22:17;;;;;;;8.57;2.85;;;10.90;99.90;;;;;;5056067;28;20049;-53
2023/06/06 04:24:43;;;;;;;7.50;2.90;;;10.90;99.90;;;;;;5056287;28;20048;-54
2023/06/06 04:27:09;;;;;;;6.87;2.80;;;10.90;99.90;;;;;;5055715;28;20554;-54
2023/06/06 04:29:35;;;;;;;5.55;2.35;;;10.90;99.90;;;;;;5054864;28;20310;-53
2023/06/06 04:32:02;;;;;;;5.53;2.63;;;10.90;99.90;;;;;;5055580;28;20044;-54
2023/06/06 04:34:29;;;;;;;;;;;11.00;99.90;;;;;;5056357;28;20056;-54
2023/06/06 04:37:01;;;;;;;5.50;2.28;;;11.00;99.90;;;;;;5055893;28;19921;-52
2023/06/06 04:39:28;;;;;;;4.80;2.08;;;11.10;99.90;;;;;;5055932;28;20488;-54
2023/06/06 04:41:56;;;;;;;6.32;2.83;;;11.10;99.90;;;;;;5056098;28;20365;-53
2023/06/06 04:44:23;;;;;;;7.28;2.88;;;11.20;99.90;;;;;;5055823;28;20045;-53
2023/06/06 04:46:52;;;;;;;;;;;11.20;99.90;;;;;;5056269;28;20056;-54
2023/06/06 04:49:21;;;;;;;6.45;3.10;;;11.30;99.90;;;;;;5055816;28;19920;-54
2023/06/06 04:51:46;;;;;;;7.05;2.50;;;11.30;99.90;;;;;;5055574;28;20049;-53
2023/06/06 04:54:12;;;;;;;7.33;2.37;;;11.40;99.90;;;;;;5055506;28;20045;-52
2023/06/06 04:56:39;;;;;;;7.13;2.55;;;11.40;99.90;;;;;;5055656;28;20045;-52
2023/06/06 04:59:09;;;;;;;7.07;2.65;;;11.50;99.90;;;;;;5055282;28;20049;-53
2023/06/06 05:01:36;;;;;;;6.00;2.67;;;11.50;99.90;;;;;;5055915;28;20048;-51
2023/06/06 05:04:03;;;;;;;8.52;2.90;;;11.60;99.90;;;;;;5055466;28;20128;-53
2023/06/06 05:06:33;;;;;;;8.48;2.55;;;11.60;99.90;;;;;;5055264;28;20088;-50
2023/06/06 05:09:03;;;;;;;7.95;2.90;;;11.70;99.90;;;;;;5055497;28;20053;-55
2023/06/06 05:11:29;;;;;;;5.88;2.28;;;11.80;99.90;;;;;;5055242;28;20481;-50
2023/06/06 05:13:55;;;;;;;7.05;2.90;;;12.10;99.90;;;;;;5055643;28;20080;-54
2023/06/06 05:16:21;;;;;;;7.22;2.67;;;12.30;99.90;;;;;;5055387;28;20095;-52
2023/06/06 05:18:47;;;;;;;7.93;2.75;;;12.70;99.90;;;;;;5055400;28;20045;-53
2023/06/06 05:21:14;;;;;;;6.40;3.00;;;13.30;99.90;;;;;;5054092;28;20571;-55
2023/06/06 05:23:40;;;;;;;6.05;2.35;;;13.60;99.90;;;;;;5053205;28;20404;-52
2023/06/06 05:26:06;;;;;;;6.63;2.45;;;13.50;99.90;;;;;;5054662;28;20049;-55
2023/06/06 05:28:31;;;;;;;4.53;1.95;;;13.40;99.90;;;;;;5054882;28;20053;-54
2023/06/06 05:30:57;;;;;;;5.57;2.13;;;13.30;99.90;;;;;;5054943;28;20110;-54
2023/06/06 05:33:26;;;;;;;5.15;2.13;;;13.30;99.90;;;;;;5054700;28;20378;-54
2023/06/06 05:35:55;;;;;;;6.47;2.38;;;13.30;99.90;;;;;;5053846;28;20045;-55
2023/06/06 05:38:21;;;;;;;7.82;2.13;;;13.20;99.90;;;;;;5054671;28;20056;-54
2023/06/06 05:40:47;;;;;;;4.65;2.17;;;13.20;99.90;;;;;;5054638;28;20072;-55
2023/06/06 05:43:14;;;;;;;6.57;2.30;;;13.30;99.90;;;;;;5054650;28;20087;-56
2023/06/06 05:45:40;;;;;;;;;;;13.30;99.90;;;;;;5055056;28;20045;-49
2023/06/06 05:48:06;;;;;;;4.57;2.20;;;13.30;99.90;;;;;;5054663;28;19931;-50
2023/06/06 05:50:31;;;;;;;9.30;2.40;;;13.30;99.90;;;;;;5053591;28;20053;-54
2023/06/06 05:52:58;;;;;;;4.95;1.77;;;13.30;99.90;;;;;;5054589;28;20384;-49
2023/06/06 05:55:27;;;;;;;5.65;1.60;;;13.40;99.90;;;;;;5054269;28;20040;-50
2023/06/06 05:57:53;;;;;;;5.35;1.70;;;13.40;99.90;;;;;;5054658;28;20189;-52
2023/06/06 06:00:19;;;;;;;3.90;1.42;;;13.30;99.90;;;;;;5054182;28;20053;-49
2023/06/06 06:02:45;;;;;;;4.80;1.73;;;13.30;99.90;;;;;;5054610;28;20134;-56
2023/06/06 06:05:10;;;;;;;6.15;1.88;;;13.30;99.90;;;;;;5054140;28;20084;-54
2023/06/06 06:07:38;;;;;;;5.03;1.47;;;13.30;99.90;;;;;;5054089;28;20044;-53
2023/06/06 06:10:04;;;;;;;4.75;1.77;;;13.30;99.90;;;;;;5054069;28;20045;-49
2023/06/06 06:12:29;;;;;;;7.68;1.88;;;13.40;99.90;;;;;;5054092;28;20085;-56
2023/06/06 06:14:55;;;;;;;3.43;1.40;;;13.40;99.90;;;;;;5054111;28;20091;-55
2023/06/06 06:17:22;;;;;;;6.57;1.60;;;13.50;99.90;;;;;;5054106;28;20453;-54
2023/06/06 06:19:48;;;;;;;3.53;1.48;;;13.40;99.90;;;;;;5053854;28;20067;-53
2023/06/06 06:22:13;;;;;;;3.57;1.10;;;13.50;99.90;;;;;;5054002;28;20128;-54
2023/06/06 06:24:39;;;;;;;6.40;1.50;;;13.50;99.90;;;;;;5053826;28;20276;-53
2023/06/06 06:27:05;;;;;;;4.23;1.20;;;13.50;99.90;;;;;;5053965;28;20761;-53
2023/06/06 06:29:31;;;;;;;5.20;1.75;;;13.50;99.90;;;;;;5054258;28;20057;-54
2023/06/06 06:31:56;;;;;;;4.13;1.70;;;13.50;99.90;;;;;;5054109;28;20377;-53
2023/06/06 06:34:22;;;;;;;5.53;1.73;;;13.60;99.90;;;;;;5053720;28;20045;-48
2023/06/06 06:36:48;;;;;;;4.87;1.70;;;13.60;99.90;;;;;;5053035;28;20138;-53
2023/06/06 06:39:18;;;;;;;4.38;1.33;;;13.60;99.90;;;;;;5053487;28;20063;-55
2023/06/06 06:41:45;;;;;;;5.80;1.33;;;13.60;99.90;;;;;;5053702;28;20053;-53
2023/06/06 06:44:11;;;;;;;5.32;1.40;;;13.70;99.90;;;;;;5053628;28;20044;-54
2023/06/06 06:46:37;;;;;;;4.43;1.55;;;13.70;99.90;;;;;;5053581;28;20068;-54
2023/06/06 06:49:03;;;;;;;4.27;1.57;;;13.80;99.90;;;;;;5053528;28;20401;-55
2023/06/06 06:51:30;;;;;;;3.07;1.10;;;13.90;99.90;;;;;;5053439;28;20279;-53
2023/06/06 06:53:57;;;;;;;5.80;1.58;;;13.90;99.90;;;;;;5053194;28;20053;-55
2023/06/06 06:56:24;;;;;;;4.85;1.40;;;14.10;99.90;;;;;;5053585;28;20057;-53
2023/06/06 06:58:50;;;;;;;5.13;1.98;;;14.10;99.90;;;;;;5052548;28;20049;-53
2023/06/06 07:01:19;;;;;;;6.70;1.90;;;14.20;99.90;;;;;;5053283;28;20500;-55
2023/06/06 07:03:48;;;;;;;4.85;1.65;;;14.20;99.90;;;;;;5052192;28;20423;-53
2023/06/06 07:06:14;;;;;;;4.22;1.67;;;14.30;99.90;;;;;;5052349;28;20053;-54
2023/06/06 07:08:41;;;;;;;5.47;1.75;;;14.30;99.90;;;;;;5053380;28;20466;-56
2023/06/06 07:11:07;;;;;;;3.85;1.38;;;14.30;99.90;;;;;;5053396;28;20057;-54
2023/06/06 07:13:33;;;;;;;4.53;1.75;;;14.30;99.90;;;;;;5053234;28;20129;-55
2023/06/06 07:15:59;;;;;;;5.77;1.70;;;14.40;99.90;;;;;;5053456;28;20056;-54
2023/06/06 07:18:24;;;;;;;4.55;1.42;;;14.50;99.90;;;;;;5053316;28;20600;-56
2023/06/06 07:20:51;;;;;;;4.93;2.10;;;14.60;99.90;;;;;;5053170;28;20045;-56
2023/06/06 07:23:17;;;;;;;6.22;2.03;;;14.70;99.90;;;;;;5052133;28;20131;-56
2023/06/06 07:25:42;;;;;;;5.37;1.67;;;14.90;99.90;;;;;;5053638;28;20472;-56
2023/06/06 07:28:10;;;;;;;3.75;1.60;;;15.20;99.90;;;;;;5053283;28;20496;-53
2023/06/06 07:30:36;;;;;;;5.70;2.00;;;15.40;99.90;;;;;;5052989;28;20049;-55
2023/06/06 07:33:02;;;;;;;4.10;1.50;;;15.40;99.90;;;;;;5053087;28;20041;-57
2023/06/06 07:35:32;;;;;;;4.88;1.40;;;15.40;99.90;;;;;;5053045;28;20045;-51
2023/06/06 07:38:02;;;;;;;3.42;1.55;;;15.40;99.90;;;;;;5053619;28;20045;-56
2023/06/06 07:40:28;;;;;;;4.72;1.58;;;15.40;99.90;;;;;;5053619;28;20049;-56
2023/06/06 07:42:55;;;;;;;4.43;1.40;;;15.40;99.90;;;;;;5053123;28;20069;-57
2023/06/06 07:45:21;;;;;;;;;;;15.40;99.90;;;;;;5053514;28;20147;-53
2023/06/06 07:47:47;;;;;;;4.93;1.70;;;15.30;99.90;;;;;;5055608;28;20019;-50
2023/06/06 07:50:13;;;;;;;5.78;1.90;;;15.20;99.90;;;;;;5056782;28;20128;-57
2023/06/06 07:52:43;;;;;;;6.28;1.65;;;15.20;99.90;;;;;;5056790;28;20048;-53
2023/06/06 07:55:11;;;;;;;5.05;1.75;;;15.10;99.90;;;;;;5056814;28;20091;-57
2023/06/06 07:57:39;;;;;;;4.30;1.48;;;15.10;99.90;;;;;;5056715;28;20087;-54
2023/06/06 08:00:10;;;;;;;4.38;1.92;;;15.10;99.90;;;;;;5056609;28;20044;-56
2023/06/06 08:02:39;;;;;;;4.22;1.55;;;15.00;99.90;;;;;;5056538;28;20040;-57
2023/06/06 08:05:06;;;;;;;4.68;1.85;;;15.00;99.90;;;;;;5056629;28;20092;-56
2023/06/06 08:07:36;;;;;;;6.68;2.17;;;15.00;99.90;;;;;;5056816;28;20053;-54
2023/06/06 08:10:02;;;;;;;6.95;2.55;;;15.00;99.90;;;;;;5056531;28;20126;-56
2023/06/06 08:12:29;;;;;;;3.72;1.67;;;15.10;99.90;;;;;;5055262;28;20049;-56
2023/06/06 08:14:54;;;;;;;6.30;2.30;;;15.00;99.90;;;;;;5056395;28;20045;-50
2023/06/06 08:17:20;;;;;;;4.87;2.50;;;15.00;99.90;;;;;;5055091;28;20507;-53
2023/06/06 08:19:45;;;;;;;5.70;2.13;;;15.00;99.90;;;;;;5056337;28;20131;-57
2023/06/06 08:22:11;;;;;;;10.63;2.80;;;15.00;99.90;;;;;;5056554;28;20048;-55
2023/06/06 08:24:37;;;;;;;4.67;1.93;;;15.00;99.90;;;;;;5056521;28;20045;-55
2023/06/06 08:27:03;;;;;;;4.60;1.77;;;15.10;99.90;;;;;;5055940;28;20106;-56
2023/06/06 08:29:29;;;;;;;3.85;1.67;;;15.10;99.90;;;;;;5056113;28;20049;-55
2023/06/06 08:31:55;;;;;;;5.32;1.60;;;15.00;99.90;;;;;;5055788;28;20056;-51
2023/06/06 08:34:21;;;;;;;4.53;1.80;;;15.00;99.90;;;;;;5055980;28;20041;-56
2023/06/06 08:36:48;;;;;;;4.20;1.52;;;15.00;99.90;;;;;;5055902;28;20045;-54
2023/06/06 08:39:15;;;;;;;4.22;1.75;;;15.00;99.90;;;;;;5055905;28;20554;-54
2023/06/06 08:41:50;;;;;;;4.00;1.73;;;15.00;99.90;;;;;;5054968;28;20049;-56
2023/06/06 08:44:21;;;;;;;6.20;1.92;;;15.00;99.90;;;;;;5055702;28;20567;-56
2023/06/06 08:46:49;;;;;;;5.07;2.17;;;15.00;99.90;;;;;;5055821;28;20071;-56
2023/06/06 08:49:21;;;;;;;4.93;2.00;;;15.10;99.90;;;;;;5055360;28;20049;-54
2023/06/06 08:51:50;;;;;;;5.72;1.70;;;15.00;99.90;;;;;;5055767;28;20107;-57
2023/06/06 08:54:20;;;;;;;5.50;2.05;;;15.10;99.90;;;;;;5055441;28;20062;-57
2023/06/06 08:56:46;;;;;;;4.90;1.83;;;15.10;99.90;;;;;;5055672;28;20247;-57
2023/06/06 08:59:14;;;;;;;;;;;15.20;99.90;;;;;;5054739;28;20088;-56
2023/06/06 09:01:40;;;;;;;5.53;2.38;;;15.20;99.90;;;;;;5055565;28;19924;-56
2023/06/06 09:04:09;;;;;;;4.63;2.45;;;15.20;99.90;;;;;;5055388;28;20048;-54
2023/06/06 09:06:43;;;;;;;4.50;2.03;;;15.20;99.90;;;;;;5055658;28;20111;-56
2023/06/06 09:09:09;;;;;;;5.43;2.20;;;15.20;99.90;;;;;;5055172;28;20053;-57
2023/06/06 09:11:36;;;;;;;6.10;2.15;;;15.20;99.90;;;;;;5055072;28;20049;-57
2023/06/06 09:14:02;;;;;;;5.47;2.33;;;15.20;99.90;;;;;;5054060;28;20120;-57
2023/06/06 09:16:28;;;;;;;5.95;2.45;;;15.20;99.90;;;;;;5053957;28;20076;-56
2023/06/06 09:18:57;;;;;;;5.70;2.53;;;15.30;99.90;;;;;;5055124;28;20048;-58
2023/06/06 09:21:22;;;;;;;6.28;2.10;;;15.30;99.90;;;;;;5055034;28;20053;-58
2023/06/06 09:23:52;;;;;;;6.07;1.93;;;15.30;99.90;;;;;;5055056;28;20583;-57
2023/06/06 09:26:20;;;;;;;4.70;2.03;;;15.30;99.90;;;;;;5054869;28;20280;-55
2023/06/06 09:28:47;;;;;;;8.32;3.00;;;15.30;99.90;;;;;;5054844;28;20060;-55
2023/06/06 09:31:32;;;;;;;5.57;2.40;;;15.30;99.90;;;;;;5054621;28;20059;-56
2023/06/06 09:33:59;;;;;;;7.55;2.30;;;15.40;99.90;;;;;;5054816;28;20048;-52
2023/06/06 09:36:27;;;;;;;7.07;2.10;;;15.30;99.90;;;;;;5054617;28;20160;-56
2023/06/06 09:38:55;;;;;;;6.53;2.67;;;15.30;99.90;;;;;;5055141;28;20048;-56
2023/06/06 09:41:21;;;;;;;5.32;2.33;;;15.40;99.90;;;;;;5055249;28;20049;-57
2023/06/06 09:43:48;;;;;;;6.88;2.30;;;15.40;99.90;;;;;;5054499;28;20047;-53
2023/06/06 09:46:17;;;;;;;6.65;2.55;;;15.50;99.90;;;;;;5054741;28;20091;-55
2023/06/06 09:48:58;;;;;;;5.35;2.40;;;15.50;99.90;;;;;;5054695;28;20426;-56
2023/06/06 09:51:24;;;;;;;6.53;2.30;;;15.60;99.90;;;;;;5055072;28;20053;-54
2023/06/06 09:53:51;;;;;;;5.57;2.35;;;15.60;99.90;;;;;;5054449;28;20163;-57
2023/06/06 09:56:21;;;;;;;4.72;1.90;;;15.60;99.90;;;;;;5054390;28;20091;-56
2023/06/06 09:58:53;;;;;;;5.05;2.28;;;15.60;99.90;;;;;;5054381;28;20439;-54
2023/06/06 10:01:23;;;;;;;4.93;2.50;;;15.60;99.90;;;;;;5054292;28;20497;-55
2023/06/06 10:03:49;;;;;;;4.70;2.25;;;15.70;99.90;;;;;;5054069;28;20136;-55
2023/06/06 10:06:15;;;;;;;5.53;2.00;;;15.70;99.90;;;;;;5054277;28;20107;-56
2023/06/06 10:08:42;;;;;;;5.75;2.67;;;15.80;99.90;;;;;;5054203;28;20045;-54
2023/06/06 10:11:09;;;;;;;5.43;2.25;;;15.80;99.90;;;;;;5054165;28;20135;-55
2023/06/06 10:13:34;;;;;;;5.05;2.08;;;15.90;99.90;;;;;;5053946;28;20041;-56
2023/06/06 10:16:01;;;;;;;4.50;1.92;;;15.90;99.90;;;;;;5054194;28;20048;-56
2023/06/06 10:18:29;;;;;;;8.80;2.83;;;15.90;99.90;;;;;;5052803;28;20060;-54
2023/06/06 10:20:56;;;;;;;5.47;1.73;;;16.00;99.90;;;;;;5054391;28;20041;-57
2023/06/06 10:23:22;;;;;;;6.15;1.90;;;16.10;99.90;;;;;;5053952;28;20626;-56
2023/06/06 10:25:48;;;;;;;4.80;1.67;;;16.10;99.90;;;;;;5054002;28;20084;-54
2023/06/06 10:28:20;;;;;;;4.82;1.70;;;16.20;99.90;;;;;;5053592;28;20053;-55
2023/06/06 10:30:56;;;;;;;4.03;1.58;;;16.30;99.90;;;;;;5053569;28;20523;-57
2023/06/06 10:34:02;;;;;;;5.38;1.80;;;16.40;99.90;;;;;;5054458;28;20094;-55
2023/06/06 10:36:40;;;;;;;3.83;1.98;;;16.40;99.90;;;;;;5053358;28;20515;-56
2023/06/06 10:39:29;;;;;;;6.18;2.25;;;16.60;99.90;;;;;;5052640;28;20049;-54
2023/06/06 10:42:05;;;;;;;5.22;2.05;;;16.70;99.90;;;;;;5053161;28;20053;-55
2023/06/06 10:44:55;;;;;;;4.00;1.73;;;16.80;99.90;;;;;;5052775;28;20045;-55
2023/06/06 10:47:21;;;;;;;4.75;1.90;;;17.00;99.90;;;;;;5052566;28;20504;-53
2023/06/06 10:50:16;;;;;;;5.17;1.63;;;17.00;99.90;;;;;;5053803;28;20056;-55
2023/06/06 10:52:46;;;;;;;5.03;1.80;;;17.10;99.90;;;;;;5053484;28;20300;-53
2023/06/06 10:55:24;;;;;;;5.07;1.58;;;17.30;99.90;;;;;;5053570;28;20041;-54
2023/06/06 10:58:09;;;;;;;3.30;1.55;;;17.40;99.90;;;;;;5053475;28;20484;-55
2023/06/06 11:00:39;;;;;;;4.47;1.90;;;17.50;99.90;;;;;;5053562;28;20055;-58
2023/06/06 11:03:10;;;;;;;6.13;2.05;;;17.70;99.90;;;;;;5053412;28;20077;-56
2023/06/06 11:06:01;;;;;;;6.97;1.98;;;17.70;99.90;;;;;;5053352;28;20109;-48
2023/06/06 11:08:48;;;;;;;5.82;2.25;;;17.80;99.90;;;;;;5053154;28;20051;-54
2023/06/06 11:11:26;;;;;;;6.50;2.17;;;17.90;99.90;;;;;;5052957;28;20099;-53
2023/06/06 11:14:03;;;;;;;5.53;2.25;;;18.00;99.90;;;;;;5053364;28;20052;-54
2023/06/06 11:16:39;;;;;;;5.85;1.90;;;17.90;99.90;;;;;;5053264;28;20076;-55
2023/06/06 11:19:11;;;;;;;5.17;1.97;;;18.00;99.90;;;;;;5053397;28;20052;-54
2023/06/06 11:21:38;;;;;;;4.53;2.00;;;18.10;99.90;;;;;;5054008;28;20048;-56
2023/06/06 11:24:05;;;;;;;6.15;2.17;;;18.10;99.90;;;;;;5057169;28;20033;-57
2023/06/06 11:26:33;;;;;;;4.78;1.95;;;18.20;99.90;;;;;;5056982;28;20060;-53
2023/06/06 11:29:00;;;;;;;7.10;2.22;;;18.20;99.90;;;;;;5057175;28;20049;-53
2023/06/06 11:31:27;;;;;;;5.47;1.70;;;18.20;99.90;;;;;;5057028;28;20050;-54
2023/06/06 11:34:03;;;;;;;4.63;1.90;;;18.30;99.90;;;;;;5056213;28;20041;-57
2023/06/06 11:36:29;;;;;;;5.53;1.92;;;18.30;99.90;;;;;;5056389;28;20087;-55
2023/06/06 11:38:58;;;;;;;;;;;18.40;99.90;;;;;;5057477;28;20488;-55
2023/06/06 11:41:24;;;;;;;6.20;1.98;;;18.40;99.90;;;;;;5057016;28;19920;-55
2023/06/06 11:43:51;;;;;;;5.45;1.60;;;18.50;99.90;;;;;;5056878;28;20049;-55
2023/06/06 11:46:17;;;;;;;4.88;1.58;;;18.50;99.90;;;;;;5057099;28;20049;-51
2023/06/06 11:48:43;;;;;;;4.47;1.50;;;18.50;99.90;;;;;;5056883;28;20053;-55
2023/06/06 11:51:13;;;;;;;3.92;1.73;;;18.60;99.90;;;;;;5056914;28;20106;-55
2023/06/06 11:53:40;;;;;;;6.70;1.83;;;18.60;99.90;;;;;;5056750;28;20049;-56
2023/06/06 11:56:13;;;;;;;6.57;1.88;;;18.70;99.90;;;;;;5055653;28;20103;-55
2023/06/06 11:58:40;;;;;;;5.22;1.92;;;18.80;99.90;;;;;;5056741;28;20053;-54
2023/06/06 12:01:08;;;;;;;5.20;1.60;;;18.80;99.90;;;;;;5056634;28;20511;-54
2023/06/06 12:03:35;;;;;;;4.95;2.00;;;18.80;99.90;;;;;;5056835;28;20041;-54
2023/06/06 12:06:04;;;;;;;6.57;1.75;;;18.90;99.90;;;;;;5056297;28;20492;-56
2023/06/06 12:08:34;;;;;;;4.80;1.92;;;18.90;99.90;;;;;;5056433;28;20079;-52
2023/06/06 12:11:19;;;;;;;4.43;1.90;;;18.90;99.90;;;;;;5055237;28;20098;-56
2023/06/06 12:13:44;;;;;;;5.55;2.25;;;19.00;99.90;;;;;;5056533;28;20048;-56
2023/06/06 12:16:10;;;;;;;5.88;1.83;;;19.00;99.90;;;;;;5056610;28;20496;-56
2023/06/06 12:18:46;;;;;;;6.18;2.00;;;19.00;99.90;;;;;;5056166;28;20381;-56
2023/06/06 12:21:15;;;;;;;7.15;2.55;;;19.00;99.90;;;;;;5056265;28;20403;-56
2023/06/06 12:23:45;;;;;;;4.72;1.88;;;18.90;99.90;;;;;;5055420;28;20061;-55
2023/06/06 12:26:18;;;;;;;5.30;1.63;;;19.00;99.90;;;;;;5056111;28;20049;-56
2023/06/06 12:28:58;;;;;;;6.55;1.88;;;19.00;99.90;;;;;;5055557;28;20053;-54
2023/06/06 12:31:30;;;;;;;8.13;2.42;;;19.00;99.90;;;;;;5056040;28;20048;-54
2023/06/06 12:34:00;;;;;;;5.25;1.90;;;19.00;99.90;;;;;;5054550;28;20123;-54
2023/06/06 12:36:26;;;;;;;5.68;1.92;;;19.10;99.90;;;;;;5056070;28;20061;-51
2023/06/06 12:39:03;;;;;;;3.70;1.55;;;19.20;99.90;;;;;;5055909;28;20120;-56
2023/06/06 12:41:41;;;;;;;;;;;19.40;99.90;;;;;;5056349;28;20045;-55
2023/06/06 12:44:11;;;;;;;5.85;1.92;;;19.50;99.90;;;;;;5056080;28;19975;-55
2023/06/06 12:46:42;;;;;;;3.22;1.38;;;19.60;99.90;;;;;;5055786;28;20045;-55
2023/06/06 12:49:08;;;;;;;5.13;1.50;;;19.50;99.90;;;;;;5055900;28;20048;-56
2023/06/06 12:51:35;;;;;;;5.15;1.50;;;19.50;99.90;;;;;;5054472;28;20503;-57
2023/06/06 12:54:02;;;;;;;3.90;1.50;;;19.50;99.90;;;;;;5055326;28;20488;-57
2023/06/06 12:56:28;;;;;;;4.38;1.75;;;19.50;99.90;;;;;;5055607;28;20060;-55